Calhoun City, Mississippi
Current Conditions -  °F | °C
As of 6:35 PM on Thursday 18 Dec 2014 (Local Time) from KGNF Reporting Station
Overcast Overcast  
Wind Chill: 45°   Ceiling: 3600
Heat Index: 45°   Visibility: 10mi
Dew Point: 41°   Wind: 0mph
Humidity: 87%   Direction: NA
Pressure: 30.2"   Gusts: NA
Location:  33.86°N, 89.31°W
Report Text: KGNF 190035Z AUTO 00000KT 10SM OVC036 07/05 A3020 RMK AO2
Loading
Personal Weather Stations






























Interactive Weather Map New forecast layout! Learn more

10-Day Weather Forecast

Advertisements
Track Severe Weather on mobile